Time;durP1;ratioP1;P1;durP2;ratioP2;P2;SDS_P1;SDS_P2;PMS_P1;PMS_P2;Temp;Humidity;BMP_temperature;BMP_pressure;BME280_temperature;BME280_humidity;BME280_pressure;Samples;Min_cycle;Max_cycle;Signal;HPM_P1;HPM_P2
2022/01/24 00:01:38;;;;;;;;;;;;;;;4.28;87.22;103441.59;5103625;28;20468;-85
2022/01/24 00:04:04;;;;;;;23.27;11.30;;;;;;;4.27;87.12;103434.66;5092871;28;19927;-85
2022/01/24 00:06:31;;;;;;;21.10;9.95;;;;;;;4.28;87.42;103443.25;5092922;28;20056;-85
2022/01/24 00:08:56;;;;;;;19.75;9.45;;;;;;;4.24;86.19;103438.78;5092976;28;20024;-84
2022/01/24 00:11:27;;;;;;;24.05;11.98;;;;;;;4.28;86.54;103439.00;5093428;28;20020;-85
2022/01/24 00:14:36;;;;;;;29.45;17.23;;;;;;;4.19;83.63;103435.97;5093454;28;20468;-85
2022/01/24 00:17:03;;;;;;;28.17;16.15;;;;;;;4.15;84.06;103434.00;5092468;28;20032;-85
2022/01/24 00:27:41;;;;;;;21.05;11.02;;;;;;;4.15;84.71;103432.34;5092909;28;20078;-85
2022/01/24 00:30:07;;;;;;;21.27;10.90;;;;;;;4.16;85.63;103430.66;5092944;28;20403;-85
2022/01/24 00:32:32;;;;;;;19.30;9.23;;;;;;;4.15;85.79;103427.22;5109993;28;20458;-85
2022/01/24 00:34:57;;;;;;;21.23;10.82;;;;;;;4.13;83.58;103428.81;5113641;28;20028;-85
2022/01/24 00:37:23;;;;;;;23.00;12.25;;;;;;;4.10;82.78;103426.06;5112551;28;20034;-85
2022/01/24 00:39:48;;;;;;;22.45;12.13;;;;;;;4.09;82.63;103421.72;5113584;28;20039;-85
2022/01/24 00:42:31;;;;;;;22.48;12.32;;;;;;;4.11;84.55;103421.81;5113701;28;20028;-85
2022/01/24 00:47:41;;;;;;;20.50;9.90;;;;;;;4.15;85.22;103424.63;5112772;28;20047;-85
2022/01/24 00:55:21;;;;;;;21.67;11.20;;;;;;;4.11;84.41;103427.84;5111853;28;20035;-85
2022/01/24 00:57:46;;;;;;;20.88;10.20;;;;;;;4.11;84.14;103422.69;5093044;28;20046;-85
2022/01/24 01:00:12;;;;;;;21.42;10.55;;;;;;;4.15;84.86;103428.88;5092447;28;20452;-85
2022/01/24 01:02:38;;;;;;;18.98;9.35;;;;;;;4.16;85.13;103422.94;5109908;28;20027;-85
2022/01/24 01:05:14;;;;;;;18.73;8.50;;;;;;;4.16;85.08;103421.25;5113488;28;20058;-85
2022/01/24 01:18:36;;;;;;;18.55;8.65;;;;;;;4.20;84.56;103419.72;5117153;28;20158;-85
2022/01/24 01:21:10;;;;;;;18.75;8.35;;;;;;;4.18;83.74;103413.63;5116731;28;20110;-85
2022/01/24 01:23:39;;;;;;;18.17;8.25;;;;;;;4.16;84.31;103412.66;5116951;27;20044;-85
2022/01/24 01:26:10;;;;;;;16.70;7.55;;;;;;;4.15;84.31;103416.94;5117252;28;20038;-85
2022/01/24 01:28:37;;;;;;;16.05;7.28;;;;;;;4.14;84.33;103407.44;5116213;28;20365;-85
2022/01/24 01:31:08;;;;;;;16.58;7.47;;;;;;;4.17;84.46;103412.72;5112052;28;20138;-85
2022/01/24 01:33:57;;;;;;;16.33;7.25;;;;;;;4.17;84.36;103412.72;5095604;28;20036;-85
2022/01/24 01:36:40;;;;;;;17.05;7.63;;;;;;;4.15;84.44;103411.78;5096245;28;20479;-85
2022/01/24 01:52:46;;;;;;;21.60;10.95;;;;;;;4.06;83.40;103410.41;5096076;28;20051;-85
2022/01/24 01:57:39;;;;;;;20.83;9.93;;;;;;;4.07;83.15;103413.03;5111652;28;19920;-85
2022/01/24 02:00:07;;;;;;;20.40;9.93;;;;;;;4.06;83.77;103410.41;5095873;28;20430;-85
2022/01/24 02:02:32;;;;;;;20.38;10.00;;;;;;;4.08;82.53;103411.38;5111696;28;20185;-84
2022/01/24 02:04:58;;;;;;;19.27;9.18;;;;;;;4.08;82.95;103414.81;5116390;27;20434;-85
2022/01/24 02:07:23;;;;;;;18.33;8.45;;;;;;;4.06;82.53;103411.28;5115635;28;20360;-85
2022/01/24 02:09:48;;;;;;;20.10;9.18;;;;;;;4.05;82.66;103406.06;5115209;28;20039;-85
2022/01/24 02:12:16;;;;;;;19.77;9.10;;;;;;;3.99;79.97;103401.47;5116354;28;20456;-85
2022/01/24 02:14:51;;;;;;;19.85;9.65;;;;;;;4.01;82.89;103400.75;5115827;28;20027;-85
2022/01/24 02:17:25;;;;;;;19.52;9.27;;;;;;;4.02;83.02;103407.66;5115398;28;20034;-85
2022/01/24 02:24:58;;;;;;;18.75;8.77;;;;;;;4.05;83.49;103390.66;5115261;28;20040;-85
2022/01/24 02:27:27;;;;;;;17.73;8.50;;;;;;;4.01;83.31;103393.03;5115167;28;20028;-85
2022/01/24 02:30:08;;;;;;;16.20;7.07;;;;;;;4.04;83.66;103392.34;5115126;28;20019;-85
2022/01/24 02:32:40;;;;;;;19.50;9.57;;;;;;;4.03;82.65;103395.72;5115392;28;20460;-85
2022/01/24 02:35:08;;;;;;;19.52;9.18;;;;;;;4.00;83.46;103385.25;5115779;28;20031;-85
2022/01/24 02:37:34;;;;;;;21.80;11.52;;;;;;;4.10;83.51;103394.34;5114859;28;20031;-85
2022/01/24 02:40:05;;;;;;;20.33;9.93;;;;;;;4.04;83.02;103394.00;5115899;27;20066;-85
2022/01/24 02:48:24;;;;;;;18.10;8.25;;;;;;;4.00;82.10;103386.13;5116043;28;20050;-85
2022/01/24 02:51:20;;;;;;;16.95;7.50;;;;;;;4.00;82.92;103382.69;5114545;28;20047;-85
2022/01/24 02:53:46;;;;;;;15.73;7.38;;;;;;;4.00;82.90;103381.00;5106628;28;20078;-85
2022/01/24 02:56:11;;;;;;;15.90;7.17;;;;;;;3.99;82.32;103383.50;5101317;28;20039;-85
2022/01/24 02:58:37;;;;;;;12.73;5.85;;;;;;;3.95;81.53;103374.75;5114302;28;20265;-85
2022/01/24 03:01:07;;;;;;;14.73;6.55;;;;;;;3.96;82.75;103373.03;5115287;28;20028;-85
2022/01/24 03:03:37;;;;;;;13.13;5.65;;;;;;;3.97;82.53;103380.84;5114877;28;20023;-85
2022/01/24 03:06:03;;;;;;;11.10;5.25;;;;;;;3.95;82.91;103367.03;5114080;28;20199;-85
2022/01/24 03:08:28;;;;;;;13.07;5.87;;;;;;;3.97;82.92;103368.00;5114658;28;20382;-85
2022/01/24 03:10:53;;;;;;;14.57;6.75;;;;;;;3.99;83.06;103371.53;5114816;28;20364;-85
2022/01/24 03:15:53;;;;;;;18.27;8.73;;;;;;;3.96;81.73;103373.03;5115107;28;20070;-85
2022/01/24 03:18:19;;;;;;;17.60;8.20;;;;;;;3.95;82.81;103372.19;5114916;28;20019;-85
2022/01/24 03:20:45;;;;;;;19.70;9.20;;;;;;;3.93;80.43;103375.47;5114146;27;20460;-85
2022/01/24 03:23:12;;;;;;;19.38;9.13;;;;;;;3.93;82.06;103367.75;5114909;28;20103;-85
2022/01/24 03:25:37;;;;;;;;;;;;;;;3.93;82.34;103368.63;5111782;28;20034;-85
2022/01/24 03:28:04;;;;;;;17.53;8.17;;;;;;;3.94;82.55;103364.41;5093278;28;19924;-85
2022/01/24 03:30:33;;;;;;;17.20;8.18;;;;;;;3.95;82.48;103363.56;5093235;28;20020;-85
2022/01/24 03:32:59;;;;;;;15.82;7.30;;;;;;;3.98;83.03;103374.00;5093271;28;20024;-85
2022/01/24 03:35:25;;;;;;;16.02;7.65;;;;;;;3.97;82.62;103368.00;5094025;28;20059;-85
2022/01/24 03:37:50;;;;;;;16.13;7.18;;;;;;;3.97;82.65;103362.88;5093965;28;20475;-85
2022/01/24 03:40:18;;;;;;;17.23;8.32;;;;;;;3.94;81.66;103356.69;5093422;28;20035;-85
2022/01/24 03:42:44;;;;;;;17.80;7.45;;;;;;;3.92;82.04;103360.84;5087031;22;20071;-85
2022/01/24 03:45:10;;;;;;;15.65;6.88;;;;;;;3.94;82.50;103364.41;5072467;28;20056;-85
2022/01/24 03:50:06;;;;;;;14.05;6.03;;;;;;;3.93;82.43;103362.63;5073573;28;20488;-85
2022/01/24 03:52:32;;;;;;;15.48;6.32;;;;;;;3.94;82.80;103369.53;5072931;28;20031;-85
2022/01/24 03:54:59;;;;;;;13.15;6.13;;;;;;;3.96;82.81;103367.91;5072906;28;20021;-85
2022/01/24 03:57:25;;;;;;;13.43;5.63;;;;;;;3.95;82.79;103367.03;5073118;28;20029;-85
2022/01/24 03:59:50;;;;;;;12.18;5.70;;;;;;;3.97;83.01;103365.44;5073468;28;20035;-85
2022/01/24 04:02:18;;;;;;;12.68;5.82;;;;;;;3.98;82.93;103363.72;5072368;28;20025;-85
2022/01/24 04:04:44;;;;;;;13.15;6.05;;;;;;;3.93;82.82;103360.06;5073039;28;20392;-85
2022/01/24 04:07:10;;;;;;;11.20;5.35;;;;;;;3.94;82.61;103357.56;5073427;28;20028;-85
2022/01/24 04:09:38;;;;;;;10.57;4.90;;;;;;;3.89;82.73;103347.84;5069347;28;20032;-85
2022/01/24 04:12:04;;;;;;;10.85;5.22;;;;;;;3.93;82.96;103362.63;5073231;28;20039;-85
2022/01/24 04:14:38;;;;;;;13.48;5.57;;;;;;;3.93;83.00;103354.91;5072705;28;20020;-85
2022/01/24 04:22:14;;;;;;;12.23;5.72;;;;;;;3.94;82.91;103359.25;5072262;28;20028;-84
2022/01/24 04:24:40;;;;;;;12.20;5.45;;;;;;;3.94;83.29;103351.56;5072995;28;20484;-85
2022/01/24 04:27:09;;;;;;;11.30;5.38;;;;;;;3.93;83.02;103352.34;5058238;28;20029;-85
2022/01/24 04:29:36;;;;;;;10.63;4.97;;;;;;;3.92;82.83;103340.31;5051986;28;20021;-84
2022/01/24 04:32:01;;;;;;;11.00;5.30;;;;;;;3.91;82.81;103353.94;5053160;28;20028;-85
2022/01/24 04:34:26;;;;;;;13.15;5.45;;;;;;;3.92;83.21;103358.28;5052710;28;20029;-85
2022/01/24 04:36:52;;;;;;;11.23;5.15;;;;;;;3.89;82.25;103353.84;5052088;28;20116;-85
2022/01/24 04:39:18;;;;;;;11.20;5.13;;;;;;;3.86;82.58;103354.56;5069227;28;20024;-85
2022/01/24 04:41:47;;;;;;;9.27;4.60;;;;;;;3.86;82.75;103361.41;5072359;28;20110;-85
2022/01/24 04:44:43;;;;;;;11.55;5.13;;;;;;;3.87;83.07;103363.19;5072338;28;20047;-85
2022/01/24 04:47:17;;;;;;;11.25;5.07;;;;;;;3.88;83.23;103364.94;5072613;28;20040;-85
2022/01/24 04:55:01;;;;;;;13.30;6.07;;;;;;;3.86;83.04;103364.84;5072782;28;20062;-85
2022/01/24 04:57:28;;;;;;;13.48;6.00;;;;;;;3.87;82.82;103358.03;5054015;28;20415;-85
2022/01/24 04:59:57;;;;;;;12.88;5.60;;;;;;;3.88;82.98;103361.47;5052610;28;20059;-85
2022/01/24 05:02:24;;;;;;;11.93;5.43;;;;;;;3.85;82.05;103360.50;5052154;28;20024;-86
2022/01/24 05:04:52;;;;;;;13.65;6.07;;;;;;;3.83;82.38;103362.13;5051608;28;20476;-85
2022/01/24 05:07:17;;;;;;;15.63;6.40;;;;;;;3.84;82.79;103365.59;5052534;28;20028;-85
2022/01/24 05:09:49;;;;;;;14.63;6.30;;;;;;;3.84;82.96;103371.59;5052078;28;20025;-85
2022/01/24 05:25:50;;;;;;;14.48;6.43;;;;;;;3.89;82.33;103368.41;5055733;28;20044;-85
2022/01/24 05:28:16;;;;;;;15.23;6.85;;;;;;;3.91;82.66;103361.66;5072573;28;20027;-85
2022/01/24 05:30:41;;;;;;;14.27;6.30;;;;;;;3.90;82.44;103358.19;5072121;28;20032;-85
2022/01/24 05:33:07;;;;;;;14.63;6.40;;;;;;;3.91;82.68;103361.66;5071819;28;20036;-85
2022/01/24 05:35:32;;;;;;;14.05;6.63;;;;;;;3.89;82.42;103358.97;5072080;28;20490;-85
2022/01/24 05:37:57;;;;;;;20.67;10.77;;;;;;;3.78;78.99;103360.09;5072640;28;20028;-85
2022/01/24 05:40:23;;;;;;;22.77;12.07;;;;;;;3.75;81.69;103358.25;5071606;28;20480;-83
2022/01/24 05:42:48;;;;;;;20.35;10.63;;;;;;;3.76;81.91;103357.47;5071722;28;20045;-85
2022/01/24 05:45:13;;;;;;;19.65;9.50;;;;;;;3.73;80.82;103354.72;5072269;28;20381;-85
2022/01/24 05:47:39;;;;;;;19.20;9.07;;;;;;;3.73;81.60;103356.41;5071290;28;20085;-84
2022/01/24 05:50:05;;;;;;;17.25;8.07;;;;;;;3.73;81.97;103359.00;5072249;28;20103;-85
2022/01/24 05:52:30;;;;;;;18.73;8.35;;;;;;;3.73;82.04;103357.28;5054373;28;20032;-86
2022/01/24 05:54:56;;;;;;;17.60;7.85;;;;;;;3.77;82.35;103366.94;5054642;28;20039;-83
2022/01/24 05:57:21;;;;;;;16.30;7.50;;;;;;;3.78;82.62;103362.66;5071423;28;20028;-84
2022/01/24 05:59:46;;;;;;;18.27;8.25;;;;;;;3.77;82.32;103361.78;5076073;28;20028;-84
2022/01/24 06:02:12;;;;;;;16.05;7.68;;;;;;;3.75;82.30;103357.38;5075023;28;20044;-84
2022/01/24 06:04:37;;;;;;;16.63;7.32;;;;;;;3.77;82.30;103369.50;5075179;28;20028;-84
2022/01/24 06:07:03;;;;;;;15.35;7.07;;;;;;;3.76;81.78;103364.28;5075080;28;20032;-84
2022/01/24 06:09:28;;;;;;;15.10;6.78;;;;;;;3.75;82.09;103363.41;5074686;28;20111;-84
2022/01/24 06:11:53;;;;;;;14.40;6.45;;;;;;;3.71;81.98;103354.66;5075608;28;20021;-84
2022/01/24 06:14:25;;;;;;;12.90;5.72;;;;;;;3.70;82.02;103359.72;5075311;28;20485;-84
2022/01/24 06:16:50;;;;;;;13.57;5.82;;;;;;;3.71;81.90;103358.91;5074689;28;20448;-86
2022/01/24 06:19:15;;;;;;;13.13;5.88;;;;;;;3.74;82.43;103360.75;5075233;28;20117;-84
2022/01/24 06:21:40;;;;;;;12.75;5.97;;;;;;;3.74;82.45;103363.31;5074382;28;20135;-84
2022/01/24 06:24:06;;;;;;;12.93;5.82;;;;;;;3.75;82.53;103362.53;5074954;28;20028;-85
2022/01/24 06:26:31;;;;;;;11.32;5.40;;;;;;;3.73;82.15;103364.13;5063842;28;20039;-85
2022/01/24 06:28:56;;;;;;;12.68;5.45;;;;;;;3.70;82.07;103362.28;5054805;28;20021;-85
2022/01/24 06:31:22;;;;;;;13.73;5.85;;;;;;;3.69;82.33;103366.53;5055044;28;20021;-86
2022/01/24 06:33:48;;;;;;;15.45;6.80;;;;;;;3.66;80.08;103361.22;5055217;28;20031;-85
2022/01/24 06:36:14;;;;;;;17.10;7.70;;;;;;;3.67;81.48;103364.69;5054200;28;20023;-85
2022/01/24 06:38:39;;;;;;;15.07;7.05;;;;;;;3.67;81.95;103359.53;5054790;28;20107;-83
2022/01/24 06:41:05;;;;;;;15.10;6.72;;;;;;;3.68;81.88;103357.03;5054689;28;20452;-83
2022/01/24 06:43:30;;;;;;;16.13;7.40;;;;;;;3.66;81.36;103358.63;5053706;28;20029;-82
2022/01/24 06:45:55;;;;;;;13.93;6.30;;;;;;;3.66;81.76;103358.63;5054879;28;20033;-82
2022/01/24 06:48:20;;;;;;;16.15;6.70;;;;;;;3.65;81.81;103358.56;5054381;28;20021;-83
2022/01/24 06:50:46;;;;;;;14.75;6.47;;;;;;;3.65;81.06;103356.00;5054805;28;20033;-83
2022/01/24 06:53:11;;;;;;;18.52;8.57;;;;;;;3.62;80.18;103364.44;5054914;28;20024;-84
2022/01/24 06:55:37;;;;;;;16.48;6.97;;;;;;;3.62;80.97;103376.38;5055143;28;20559;-83
2022/01/24 06:58:02;;;;;;;16.25;7.40;;;;;;;3.62;81.27;103368.66;5052934;28;20029;-83
2022/01/24 07:00:30;;;;;;;17.90;8.18;;;;;;;3.63;81.65;103368.78;5053153;28;20032;-84
2022/01/24 07:02:56;;;;;;;17.98;8.30;;;;;;;3.62;81.30;103364.44;5054678;28;20029;-83
2022/01/24 07:05:25;;;;;;;18.30;8.43;;;;;;;3.62;81.96;103367.00;5053365;28;20100;-83
2022/01/24 07:07:51;;;;;;;19.02;9.13;;;;;;;3.62;81.40;103363.53;5054494;28;20036;-81
2022/01/24 07:10:16;;;;;;;22.10;12.05;;;;;;;3.72;80.62;103373.50;5054512;28;20029;-81
2022/01/24 07:12:42;;;;;;;23.08;12.55;;;;;;;3.61;81.21;103374.59;5054192;28;20470;-82
2022/01/24 07:15:11;;;;;;;21.27;10.68;;;;;;;3.58;80.80;103375.31;5053741;28;20128;-85
2022/01/24 07:20:20;;;;;;;18.83;9.02;;;;;;;3.55;80.28;103381.19;5054168;28;20436;-86
2022/01/24 07:22:46;;;;;;;18.33;8.15;;;;;;;3.55;81.25;103378.63;5054232;28;20025;-86
2022/01/24 07:25:11;;;;;;;17.75;8.20;;;;;;;3.55;81.11;103381.19;5053530;28;20025;-86
2022/01/24 07:27:36;;;;;;;17.88;8.32;;;;;;;3.56;81.44;103379.50;5054875;28;20424;-86
2022/01/24 07:30:03;;;;;;;16.50;6.93;;;;;;;3.59;81.34;103383.94;5053956;28;20401;-86
2022/01/24 07:32:29;;;;;;;;;;;;;;;3.60;81.01;103393.41;5053350;28;20037;-85
2022/01/24 07:34:54;;;;;;;15.30;6.80;;;;;;;3.60;81.42;103388.28;5054118;28;19919;-85
2022/01/24 07:37:21;;;;;;;13.98;6.18;;;;;;;3.59;81.40;103387.38;5053888;28;20040;-86
2022/01/24 07:39:47;;;;;;;13.32;6.45;;;;;;;3.61;81.61;103384.88;5053236;28;20029;-86
2022/01/24 07:42:17;;;;;;;13.65;6.25;;;;;;;3.60;81.45;103384.00;5053593;28;20048;-87
2022/01/24 07:44:44;;;;;;;14.30;6.40;;;;;;;3.58;81.61;103384.72;5053513;28;20104;-87
2022/01/24 07:47:10;;;;;;;12.40;5.63;;;;;;;3.60;81.43;103385.69;5053144;28;20025;-86
2022/01/24 07:49:39;;;;;;;12.00;5.65;;;;;;;3.56;81.82;103382.06;5053399;28;20067;-84
2022/01/24 07:52:04;;;;;;;13.80;5.97;;;;;;;3.59;81.73;103389.06;5056818;28;20454;-88
2022/01/24 07:54:30;;;;;;;12.38;5.50;;;;;;;3.57;81.63;103398.38;5035166;28;20059;-87
2022/01/24 07:57:04;;;;;;;12.48;6.03;;;;;;;3.59;81.72;103404.47;5054624;28;20021;-87
2022/01/24 07:59:29;;;;;;;14.50;5.90;;;;;;;3.58;81.61;103408.72;5053501;28;20539;-87
2022/01/24 08:01:55;;;;;;;15.32;6.05;;;;;;;3.60;81.88;103408.81;5053184;28;20033;-88
2022/01/24 08:04:20;;;;;;;16.02;6.85;;;;;;;3.61;81.86;103415.69;5053759;28;20025;-88
2022/01/24 08:07:00;;;;;;;16.65;7.10;;;;;;;3.64;82.02;103416.78;5053921;28;20112;-88
2022/01/24 08:09:26;;;;;;;14.13;6.05;;;;;;;3.59;81.92;103412.19;5071966;28;20062;-88
2022/01/24 08:11:51;;;;;;;15.10;6.25;;;;;;;3.62;81.62;103418.38;5073523;28;20024;-88
2022/01/24 08:14:16;;;;;;;14.27;6.03;;;;;;;3.62;82.04;103420.94;5072386;28;20028;-88
2022/01/24 08:16:43;;;;;;;16.52;6.55;;;;;;;3.63;81.71;103414.09;5072934;28;20024;-87
2022/01/24 08:19:08;;;;;;;16.30;6.68;;;;;;;3.64;81.54;103421.91;5073456;28;20389;-88
2022/01/24 08:21:33;;;;;;;18.05;8.27;;;;;;;3.64;81.27;103423.56;5065888;28;20044;-88
2022/01/24 08:24:02;;;;;;;21.40;10.55;;;;;;;3.60;80.44;103417.38;5052832;28;20025;-88
2022/01/24 08:26:27;;;;;;;29.50;16.33;;;;;;;3.49;79.49;103416.78;5061230;28;20032;-87
2022/01/24 08:28:52;;;;;;;26.73;14.45;;;;;;;3.47;80.61;103418.41;5072750;28;20478;-88
2022/01/24 08:31:18;;;;;;;24.48;12.85;;;;;;;3.49;81.05;103423.63;5073558;28;20039;-87
2022/01/24 08:33:44;;;;;;;23.40;11.32;;;;;;;3.49;80.88;103427.06;5072997;28;20048;-88
2022/01/24 08:36:10;;;;;;;25.70;13.98;;;;;;;3.47;78.99;103417.50;5072833;28;20056;-88
2022/01/24 08:38:36;;;;;;;25.10;13.88;;;;;;;3.43;80.44;103420.72;5072974;28;20048;-88
2022/01/24 08:41:09;;;;;;;26.60;13.85;;;;;;;3.43;80.08;103420.72;5072931;28;20017;-87
2022/01/24 08:43:51;;;;;;;24.33;12.68;;;;;;;3.39;80.24;103422.22;5072327;28;20060;-87
2022/01/24 08:46:17;;;;;;;23.63;12.73;;;;;;;3.39;80.25;103429.91;5073011;28;20020;-88
2022/01/24 08:48:43;;;;;;;23.33;12.15;;;;;;;3.37;80.09;103427.25;5073117;28;20025;-87
2022/01/24 08:51:09;;;;;;;24.85;13.50;;;;;;;3.36;79.50;103427.19;5072175;28;20021;-89
2022/01/24 08:53:34;;;;;;;24.65;12.90;;;;;;;3.35;80.13;103433.13;5074943;28;20372;-88
2022/01/24 08:56:04;;;;;;;23.65;12.60;;;;;;;3.38;80.82;103433.28;5071845;28;20028;-87
2022/01/24 08:58:30;;;;;;;23.77;11.82;;;;;;;3.42;80.93;103434.34;5072030;28;20032;-87
2022/01/24 09:00:56;;;;;;;21.35;10.85;;;;;;;3.43;80.96;103431.84;5073115;28;20032;-87
2022/01/24 09:03:22;;;;;;;21.65;10.55;;;;;;;3.43;80.52;103421.59;5072758;28;20028;-87
2022/01/24 09:05:49;;;;;;;20.92;9.57;;;;;;;3.43;80.32;103433.56;5072070;28;20110;-88
2022/01/24 09:08:14;;;;;;;23.10;11.55;;;;;;;3.44;79.58;103431.06;5072837;28;20033;-88
2022/01/24 09:10:40;;;;;;;21.92;11.27;;;;;;;3.46;80.78;103434.59;5072016;28;20120;-88
2022/01/24 09:13:21;;;;;;;23.58;12.35;;;;;;;3.47;80.77;103426.09;5072920;28;20059;-88
2022/01/24 09:15:47;;;;;;;25.35;13.82;;;;;;;3.47;79.88;103423.53;5073317;28;20526;-87
2022/01/24 09:18:12;;;;;;;24.70;13.40;;;;;;;3.46;80.31;103439.75;5072307;28;20025;-88
2022/01/24 09:20:38;;;;;;;24.23;13.10;;;;;;;3.46;78.99;103437.19;5072232;28;20150;-88
2022/01/24 09:23:06;;;;;;;26.27;13.95;;;;;;;3.44;79.22;103446.47;5072428;28;20024;-88
2022/01/24 09:25:31;;;;;;;23.95;13.13;;;;;;;3.45;79.63;103439.63;5066000;28;20534;-88
2022/01/24 09:27:57;;;;;;;20.73;10.55;;;;;;;3.44;80.31;103433.63;5052768;28;20037;-87
2022/01/24 09:30:23;;;;;;;20.70;10.15;;;;;;;3.48;80.48;103438.16;5056301;28;20473;-88
2022/01/24 09:32:48;;;;;;;19.40;9.50;;;;;;;3.52;80.25;103426.38;5056078;28;20152;-88
2022/01/24 09:35:18;;;;;;;20.95;9.48;;;;;;;3.53;80.56;103431.56;5056392;28;20469;-87
2022/01/24 09:37:46;;;;;;;20.13;9.48;;;;;;;3.55;80.07;103434.22;5056206;28;20491;-87
2022/01/24 09:40:13;;;;;;;20.45;9.65;;;;;;;3.57;80.37;103436.88;5055866;28;20091;-88
2022/01/24 09:42:39;;;;;;;21.80;11.05;;;;;;;3.59;80.56;103430.16;5056061;28;20041;-88
2022/01/24 09:45:05;;;;;;;22.98;12.05;;;;;;;3.59;80.00;103431.03;5056401;28;20043;-87
2022/01/24 09:47:31;;;;;;;22.02;11.27;;;;;;;3.55;79.90;103426.50;5054932;28;20060;-88
2022/01/24 09:50:06;;;;;;;21.58;10.70;;;;;;;3.54;79.96;103425.63;5056208;28;20041;-87
2022/01/24 09:52:32;;;;;;;22.88;11.60;;;;;;;3.57;80.13;103431.75;5060661;28;20037;-87
2022/01/24 09:54:57;;;;;;;23.48;12.00;;;;;;;3.58;79.98;103420.69;5055586;28;20024;-88
2022/01/24 09:57:22;;;;;;;23.27;11.90;;;;;;;3.53;79.77;103426.44;5056103;28;20036;-87
2022/01/24 09:59:48;;;;;;;20.88;10.43;;;;;;;3.56;80.01;103423.16;5055307;28;20428;-88
2022/01/24 10:02:13;;;;;;;24.60;13.10;;;;;;;3.55;79.95;103418.81;5055560;28;20024;-87
2022/01/24 10:04:51;;;;;;;21.73;11.27;;;;;;;3.57;80.08;103427.47;5055404;28;20025;-88
2022/01/24 10:07:16;;;;;;;21.83;10.32;;;;;;;3.62;80.51;103430.31;5055398;28;20021;-88
2022/01/24 10:09:48;;;;;;;22.17;11.20;;;;;;;3.68;80.00;103428.09;5055798;28;20021;-88
2022/01/24 10:18:34;;;;;;;26.52;14.15;;;;;;;3.68;79.90;103430.66;4974977;28;20030;-87
2022/01/24 10:20:59;;;;;;;25.10;13.15;;;;;;;3.68;79.79;103423.81;4974100;28;20026;-87
2022/01/24 10:23:26;;;;;;;23.40;12.18;;;;;;;3.70;79.65;103422.22;5011475;28;20035;-88
2022/01/24 10:26:04;;;;;;;23.88;12.70;;;;;;;3.69;79.12;103433.31;5059317;28;20381;-87
2022/01/24 10:28:34;;;;;;;23.25;11.93;;;;;;;3.69;79.69;103435.00;5074341;28;20024;-87
2022/01/24 10:31:03;;;;;;;24.20;12.02;;;;;;;3.73;79.70;103433.47;5075778;28;20489;-87
2022/01/24 10:33:29;;;;;;;20.83;10.85;;;;;;;3.71;79.94;103423.13;5075161;28;20495;-88
2022/01/24 10:35:55;;;;;;;21.45;10.70;;;;;;;3.76;79.41;103426.81;5075057;28;20020;-88
2022/01/24 10:38:40;;;;;;;21.05;9.90;;;;;;;3.81;79.74;103429.63;5075554;28;20067;-86
2022/01/24 10:41:22;;;;;;;18.52;8.57;;;;;;;3.86;79.50;103423.06;5074138;28;20089;-90
2022/01/24 10:43:55;;;;;;;18.60;8.07;;;;;;;3.90;79.44;103421.53;5075913;28;20025;-88
2022/01/24 10:46:30;;;;;;;16.70;7.47;;;;;;;3.94;79.69;103420.91;5075292;28;20453;-88
2022/01/24 10:49:07;;;;;;;17.42;7.63;;;;;;;3.94;78.82;103414.09;5075159;28;20024;-87
2022/01/24 10:51:47;;;;;;;18.58;8.07;;;;;;;3.99;79.20;103411.75;5063078;28;20059;-88
2022/01/24 10:54:27;;;;;;;19.00;8.38;;;;;;;3.99;79.53;103406.63;5062535;28;20036;-88
2022/01/24 10:56:53;;;;;;;24.13;12.73;;;;;;;4.05;78.78;103409.53;5054299;28;20044;-88
2022/01/24 10:59:21;;;;;;;23.65;12.30;;;;;;;4.01;78.92;103408.47;5054936;28;20025;-88
2022/01/24 11:01:59;;;;;;;22.05;11.02;;;;;;;4.00;79.00;103411.81;5055205;28;20432;-88
2022/01/24 11:04:26;;;;;;;21.05;10.23;;;;;;;4.03;78.53;103408.56;5054311;28;20100;-89
2022/01/24 11:06:57;;;;;;;20.55;9.57;;;;;;;4.03;79.05;103406.00;5055324;28;20029;-88
2022/01/24 11:09:27;;;;;;;18.65;8.65;;;;;;;4.04;78.59;103400.06;5055189;28;20025;-88
2022/01/24 11:12:06;;;;;;;21.33;10.00;;;;;;;4.04;77.88;103404.28;5054782;28;20044;-88
2022/01/24 11:14:32;;;;;;;20.38;9.30;;;;;;;4.01;78.83;103405.88;5055145;28;20035;-88
2022/01/24 11:16:59;;;;;;;19.05;9.07;;;;;;;4.06;79.05;103407.84;5054725;28;20033;-88
2022/01/24 11:19:45;;;;;;;20.38;9.27;;;;;;;4.07;78.20;103405.31;5053938;28;20028;-88
2022/01/24 11:22:25;;;;;;;20.80;10.32;;;;;;;4.07;78.65;103405.31;5055107;28;20039;-88
2022/01/24 11:24:57;;;;;;;19.58;9.25;;;;;;;4.09;78.52;103405.44;5054052;28;20043;-88
2022/01/24 11:27:23;;;;;;;20.25;9.38;;;;;;;4.09;78.89;103403.72;5070313;28;20082;-88
2022/01/24 11:29:55;;;;;;;19.70;8.95;;;;;;;4.09;77.89;103396.03;5074381;28;20021;-88
2022/01/24 11:32:28;;;;;;;19.52;9.23;;;;;;;4.09;77.71;103395.16;5073572;28;20029;-87
2022/01/24 11:34:55;;;;;;;19.17;8.68;;;;;;;4.04;78.23;103386.31;5074322;28;20345;-87
2022/01/24 11:37:37;;;;;;;17.92;7.97;;;;;;;4.06;78.07;103393.28;5074277;28;20021;-88
2022/01/24 11:40:11;;;;;;;17.10;7.60;;;;;;;4.08;78.18;103404.53;5073538;28;20055;-88
2022/01/24 11:42:37;;;;;;;16.45;6.95;;;;;;;4.07;76.95;103400.19;5074097;28;20051;-88
2022/01/24 11:45:11;;;;;;;16.97;7.50;;;;;;;4.07;77.75;103397.63;5074125;28;20485;-87
2022/01/24 11:47:37;;;;;;;17.92;7.47;;;;;;;4.11;78.12;103399.56;5073238;28;20484;-88
2022/01/24 11:50:25;;;;;;;18.33;7.95;;;;;;;4.14;78.42;103399.72;5073988;28;20036;-88
2022/01/24 11:52:52;;;;;;;17.45;7.55;;;;;;;4.16;78.25;103393.00;5074033;28;20020;-87
2022/01/24 11:55:31;;;;;;;15.52;6.68;;;;;;;4.23;78.59;103388.16;5078669;28;20020;-88
2022/01/24 11:58:04;;;;;;;15.73;6.70;;;;;;;4.27;77.90;103374.66;5073154;28;20056;-89
2022/01/24 12:00:37;;;;;;;16.05;6.65;;;;;;;4.33;78.98;103377.53;5073317;28;20013;-88
2022/01/24 12:03:16;;;;;;;16.05;6.80;;;;;;;4.37;78.78;103381.16;5073823;28;20025;-89
2022/01/24 12:05:50;;;;;;;18.95;8.50;;;;;;;4.42;77.49;103372.88;5073773;28;20095;-88
2022/01/24 12:08:38;;;;;;;19.13;8.73;;;;;;;4.36;77.10;103372.56;5073367;28;20020;-88
2022/01/24 12:11:13;;;;;;;18.73;8.23;;;;;;;4.33;77.49;103374.97;5073982;28;20032;-89
2022/01/24 12:13:46;;;;;;;18.65;8.40;;;;;;;4.35;76.52;103373.38;5073372;28;20024;-88
2022/01/24 12:16:14;;;;;;;17.42;8.00;;;;;;;4.35;77.40;103368.22;5073191;28;20094;-87
2022/01/24 12:18:39;;;;;;;17.02;7.35;;;;;;;4.39;77.44;103374.41;5073329;28;20044;-86
2022/01/24 12:21:23;;;;;;;16.10;6.88;;;;;;;4.38;77.20;103370.97;5067939;28;20512;-87
2022/01/24 12:24:00;;;;;;;15.30;6.53;;;;;;;4.40;77.01;103369.31;5053302;28;20112;-86
2022/01/24 12:26:27;;;;;;;;;;;;;;;4.45;77.93;103370.47;5054186;28;20021;-86
2022/01/24 12:28:59;;;;;;;16.63;6.90;;;;;;;4.45;77.35;103360.16;5055557;28;19916;-91
2022/01/24 12:31:30;;;;;;;13.32;6.28;;;;;;;4.51;77.37;103366.41;5052997;28;20392;-87
2022/01/24 12:34:09;;;;;;;14.15;6.10;;;;;;;4.56;77.92;103362.41;5053887;28;20036;-87
2022/01/24 12:36:38;;;;;;;18.95;8.32;;;;;;;4.57;76.47;103365.03;5052083;28;20013;-87
2022/01/24 12:39:25;;;;;;;18.77;8.23;;;;;;;4.61;77.55;103366.09;5053273;28;20040;-88
2022/01/24 12:41:59;;;;;;;16.33;7.78;;;;;;;4.64;77.54;103356.84;5052546;28;20102;-87
2022/01/24 12:47:07;;;;;;;15.98;7.07;;;;;;;4.76;77.39;103350.53;5053177;28;20028;-88
2022/01/24 12:49:35;;;;;;;18.08;7.47;;;;;;;4.80;77.49;103344.72;5053244;28;20043;-88
2022/01/24 12:52:03;;;;;;;18.05;7.82;;;;;;;4.82;77.56;103348.25;5053285;28;20036;-88
2022/01/24 12:54:35;;;;;;;17.67;7.85;;;;;;;4.85;77.29;103342.38;5058990;28;20036;-88
2022/01/24 12:57:06;;;;;;;19.17;9.02;;;;;;;4.90;77.62;103338.34;5045111;28;20489;-88
2022/01/24 12:59:33;;;;;;;18.35;8.65;;;;;;;4.90;77.04;103349.50;5053124;28;20033;-88
2022/01/24 13:02:02;;;;;;;20.02;9.38;;;;;;;4.89;77.19;103342.63;5054174;28;20416;-86
2022/01/24 13:04:39;;;;;;;19.00;8.63;;;;;;;4.90;76.88;103338.34;5056173;28;20031;-87
2022/01/24 13:07:05;;;;;;;19.33;8.90;;;;;;;4.90;75.93;103326.34;5057096;28;20033;-88